BBC Skysails — V2CS4 — position and weather

sailwx.info

Track history (hours):
 
Tides and Currents Weather Stations Pressure Air Temp Water Temp Dewpoint Dewpoint Depression Visibility Wind Speed Wind Dir Waves Ship Positions

BBC Skysails

Last reported at 2018-Feb-21 07:54 UTC. Time now 2018-Feb-22 19:19 UTC.
Position N 36°13' E 014°45'.

Length 132 m; draft 5.4 m.

Type: Cargo ship. MMSI: 305093000.

Date/timePositionNaut miles runAvg speedWind from/ knotsBaromVisibWave heightAir tempDewpointWater temp
2018-Feb-21 07:54N 36°13' E 014°45'512.2
2018-Feb-21 07:30N 36°15' E 014°40'612.3
2018-Feb-21 07:00N 36°17' E 014°33'612.0
2018-Feb-21 06:30N 36°19' E 014°25'612.1
2018-Feb-21 06:00N 36°21' E 014°19'612.1
2018-Feb-21 05:30N 36°24' E 014°12'612.2
2018-Feb-21 04:59N 36°26' E 014°04'  
2018-Feb-17 00:00N 38°18' W 009°60'713.8
2018-Feb-16 23:29N 38°25' W 010°02'714.3
2018-Feb-16 23:00N 38°32' W 010°04'814.2
2018-Feb-16 22:28N 38°39' W 010°06'613.8
2018-Feb-16 22:00N 38°45' W 010°08'713.9
2018-Feb-16 21:30N 38°53' W 010°08'714.0
2018-Feb-16 21:00N 38°59' W 010°07'714.1
2018-Feb-16 20:30N 39°06' W 010°07'52112.0
2018-Feb-15 01:00N 47°29' W 006°58'6 8.5
2018-Feb-15 00:19N 47°34' W 006°54'7 8.3
2018-Feb-14 23:26N 47°40' W 006°48'4 9.0
2018-Feb-14 23:00N 47°44' W 006°45'7 9.2
2018-Feb-14 22:15N 47°50' W 006°41'12 9.6
2018-Feb-14 21:03N 48°00' W 006°32'410.1
2018-Feb-14 20:40N 48°04' W 006°30'210.5
2018-Feb-14 20:30N 48°05' W 006°28'510.6
2018-Feb-14 20:00N 48°10' W 006°25'710.6
2018-Feb-14 19:20N 48°16' W 006°20'510.4
2018-Feb-14 18:50N 48°21' W 006°16'42 8.6
2018-Feb-14 13:53N 48°56' W 005°41'8 8.8
2018-Feb-14 12:58N 49°01' W 005°30'94 9.1
2018-Feb-14 02:41N 49°48' W 003°26'210.4
2018-Feb-14 02:28N 49°49' W 003°23'510.8
2018-Feb-14 02:00N 49°51' W 003°16'611.5
2018-Feb-14 01:29N 49°54' W 003°08'612.0
2018-Feb-14 01:00N 49°57' W 003°01'612.2
2018-Feb-14 00:30N 49°60' W 002°52'612.4
2018-Feb-14 00:00N 50°01' W 002°43'3010.8
2018-Feb-13 21:11N 50°09' W 001°57'2 8.1
2018-Feb-13 20:57N 50°10' W 001°54'3 7.8
2018-Feb-13 20:30N 50°11' W 001°49'4 7.2
2018-Feb-13 20:00N 50°12' W 001°44'3 6.6
2018-Feb-13 19:30N 50°12' W 001°39'3 6.1
2018-Feb-13 19:00N 50°13' W 001°34'3 6.0
2018-Feb-13 18:30N 50°14' W 001°29'44 9.1
2018-Feb-13 13:41N 50°26' W 000°23'210.5
2018-Feb-13 13:31N 50°26' W 000°20'510.0
2018-Feb-13 13:00N 50°28' W 000°13'5 9.4
2018-Feb-13 12:31N 50°29' W 000°06'5 9.9
2018-Feb-13 12:00N 50°30' E 000°02'5 9.3
2018-Feb-13 11:31N 50°31' E 000°09'4 8.6
2018-Feb-13 11:01N 50°33' E 000°16'4 7.8
2018-Feb-13 10:31N 50°34' E 000°21'4 8.7
2018-Feb-13 10:00N 50°35' E 000°28'5 9.3
2018-Feb-13 09:30N 50°37' E 000°35'5 9.2
2018-Feb-13 09:00N 50°40' E 000°41'5 9.4
2018-Feb-13 08:30N 50°43' E 000°46'5 9.4
2018-Feb-13 08:00N 50°46' E 000°52'5 9.8
2018-Feb-13 07:31N 50°49' E 000°58'610.3
2018-Feb-13 06:55N 50°53' E 001°05'511.4
2018-Feb-13 06:26N 50°57' E 001°11'512.1
2018-Feb-13 06:00N 50°60' E 001°18'612.6
2018-Feb-13 05:31N 51°03' E 001°26'713.0
2018-Feb-13 05:00N 51°07' E 001°35'713.1
2018-Feb-13 04:30N 51°11' E 001°43'612.3
2018-Feb-13 04:00N 51°16' E 001°49'612.0
2018-Feb-13 03:30N 51°21' E 001°54'611.0
2018-Feb-13 03:00N 51°25' E 002°01'713.4
2018-Feb-13 02:30N 51°22' E 002°10'612.1
2018-Feb-13 02:00N 51°21' E 002°20'611.9
2018-Feb-13 01:29N 51°23' E 002°29'611.9
2018-Feb-13 01:00N 51°22' E 002°39'611.3
2018-Feb-13 00:29N 51°22' E 002°48'611.4
2018-Feb-12 23:58N 51°22' E 002°57'510.7
2018-Feb-12 23:30N 51°22' E 003°05'510.1
2018-Feb-12 23:00N 51°23' E 003°13'510.1
2018-Feb-12 22:30N 51°24' E 003°21'510.0
2018-Feb-12 21:59N 51°25' E 003°29'4 8.6
2018-Feb-12 21:30N 51°25' E 003°36'5 9.2
2018-Feb-12 21:00N 51°23' E 003°43'510.8
2018-Feb-12 20:30N 51°21' E 003°50'510.3
2018-Feb-12 20:00N 51°24' E 003°57'3 6.8
2018-Feb-12 19:30N 51°25' E 004°02'5 9.6
2018-Feb-12 19:00N 51°23' E 004°09'4 8.5
2018-Feb-12 18:30N 51°21' E 004°15'4 9.1
2018-Feb-12 18:00N 51°17' E 004°19'1 1.7
2018-Feb-12 17:30N 51°17' E 004°20'0 0.0
2018-Feb-12 17:00N 51°17' E 004°20'1 2.6
2018-Feb-12 16:30N 51°16' E 004°21'1 1.6
2018-Feb-12 15:55N 51°15' E 004°22'0 0.0
2018-Feb-12 15:16N 51°15' E 004°22'0 0.0
2018-Feb-12 14:58N 51°15' E 004°22'0 0.0
2018-Feb-12 14:28N 51°15' E 004°22'0 0.0
2018-Feb-12 13:58N 51°15' E 004°22'0 0.0
2018-Feb-12 13:28N 51°15' E 004°22'0 0.0
2018-Feb-12 12:58N 51°15' E 004°22'0 0.0
2018-Feb-12 12:28N 51°15' E 004°22'0 0.0
2018-Feb-12 11:58N 51°15' E 004°22'0 0.0
2018-Feb-12 11:28N 51°15' E 004°22'0 0.0
2018-Feb-12 10:58N 51°15' E 004°22'0 0.0
2018-Feb-12 10:28N 51°15' E 004°22'0 0.0
2018-Feb-12 09:58N 51°15' E 004°22'0 0.0
2018-Feb-12 09:22N 51°15' E 004°22'0 0.0
2018-Feb-12 08:58N 51°15' E 004°22'0 0.0
2018-Feb-12 08:28N 51°15' E 004°22'0 0.0
2018-Feb-12 07:55N 51°15' E 004°22'0 0.0
2018-Feb-12 07:28N 51°15' E 004°22'0 0.0
2018-Feb-12 06:58N 51°15' E 004°22'0 0.0
2018-Feb-12 06:28N 51°15' E 004°22'0 0.0
2018-Feb-12 05:58N 51°15' E 004°22'0 0.0
2018-Feb-12 05:28N 51°15' E 004°22'0 0.0
2018-Feb-12 04:58N 51°15' E 004°22'0 0.0
2018-Feb-12 04:28N 51°15' E 004°22'0 0.0
2018-Feb-12 03:58N 51°15' E 004°22'0 0.0
2018-Feb-12 03:28N 51°15' E 004°22'0 0.0
2018-Feb-12 02:58N 51°15' E 004°22'0 0.0
2018-Feb-12 02:28N 51°15' E 004°22'0 0.0
2018-Feb-12 01:58N 51°15' E 004°22'0 0.0
2018-Feb-12 01:28N 51°15' E 004°22'0 0.0
2018-Feb-12 00:58N 51°15' E 004°22'0 0.0
2018-Feb-12 00:28N 51°15' E 004°22'0 0.0
2018-Feb-11 23:58N 51°15' E 004°22'0 0.0
2018-Feb-11 23:28N 51°15' E 004°22'0 0.0
2018-Feb-11 22:58N 51°15' E 004°22'0 0.0
2018-Feb-11 22:28N 51°15' E 004°22'0 0.0
2018-Feb-11 21:55N 51°15' E 004°22'0 0.0
2018-Feb-11 21:28N 51°15' E 004°22'0 0.0
2018-Feb-11 20:58N 51°15' E 004°22'0 0.0
2018-Feb-11 20:28N 51°15' E 004°22'0 0.0
2018-Feb-11 19:55N 51°15' E 004°22'0 0.0
2018-Feb-11 19:28N 51°15' E 004°22'0 0.0
2018-Feb-11 18:58N 51°15' E 004°22'0 0.0
2018-Feb-11 18:25N 51°15' E 004°22'0 0.0
2018-Feb-11 17:58N 51°15' E 004°22'0 0.0
2018-Feb-11 17:28N 51°15' E 004°22'0 0.0
2018-Feb-11 16:58N 51°15' E 004°22'0 0.0
2018-Feb-11 16:25N 51°15' E 004°22'0 0.0
2018-Feb-11 15:58N 51°15' E 004°22'0 0.0
2018-Feb-11 15:25N 51°15' E 004°22'0 0.0
2018-Feb-11 14:58N 51°15' E 004°22'0 0.0
2018-Feb-11 14:28N 51°15' E 004°22'0 0.0
2018-Feb-11 13:58N 51°15' E 004°22'0 0.0
2018-Feb-11 13:28N 51°15' E 004°22'0 0.0
2018-Feb-11 12:58N 51°15' E 004°22'0 0.0
2018-Feb-11 12:25N 51°15' E 004°22'0 0.0
2018-Feb-11 11:58N 51°15' E 004°22'0 0.0
2018-Feb-11 11:28N 51°15' E 004°22'0 0.0
2018-Feb-11 10:55N 51°15' E 004°22'0 0.0
2018-Feb-11 10:28N 51°15' E 004°22'0 0.0
2018-Feb-11 09:58N 51°15' E 004°22'0 0.0
2018-Feb-11 09:28N 51°15' E 004°22'0 0.0
2018-Feb-11 08:58N 51°15' E 004°22'0 0.0
2018-Feb-11 08:28N 51°15' E 004°22'0 0.0
2018-Feb-11 07:58N 51°15' E 004°22'  
Track history (hours):
 
Tides and Currents Weather Stations Pressure Air Temp Water Temp Dewpoint Dewpoint Depression Visibility Wind Speed Wind Dir Waves Ship Positions

BBC Skysails

Last reported at 2018-Feb-21 07:54 UTC. Time now 2018-Feb-22 19:19 UTC.
Position N 36°13' E 014°45'.

Length 132 m; draft 5.4 m.

Type: Cargo ship. MMSI: 305093000.

Date/timePositionNaut miles runAvg speedWind from/ knotsBaromVisibWave heightAir tempDewpointWater temp
2018-Feb-21 07:54N 36°13' E 014°45'512.2
2018-Feb-21 07:30N 36°15' E 014°40'612.3
2018-Feb-21 07:00N 36°17' E 014°33'612.0
2018-Feb-21 06:30N 36°19' E 014°25'612.1
2018-Feb-21 06:00N 36°21' E 014°19'612.1
2018-Feb-21 05:30N 36°24' E 014°12'612.2
2018-Feb-21 04:59N 36°26' E 014°04'  
2018-Feb-17 00:00N 38°18' W 009°60'713.8
2018-Feb-16 23:29N 38°25' W 010°02'714.3
2018-Feb-16 23:00N 38°32' W 010°04'814.2
2018-Feb-16 22:28N 38°39' W 010°06'613.8
2018-Feb-16 22:00N 38°45' W 010°08'713.9
2018-Feb-16 21:30N 38°53' W 010°08'714.0
2018-Feb-16 21:00N 38°59' W 010°07'714.1
2018-Feb-16 20:30N 39°06' W 010°07'52112.0
2018-Feb-15 01:00N 47°29' W 006°58'6 8.5
2018-Feb-15 00:19N 47°34' W 006°54'7 8.3
2018-Feb-14 23:26N 47°40' W 006°48'4 9.0
2018-Feb-14 23:00N 47°44' W 006°45'7 9.2
2018-Feb-14 22:15N 47°50' W 006°41'12 9.6
2018-Feb-14 21:03N 48°00' W 006°32'410.1
2018-Feb-14 20:40N 48°04' W 006°30'210.5
2018-Feb-14 20:30N 48°05' W 006°28'510.6
2018-Feb-14 20:00N 48°10' W 006°25'710.6
2018-Feb-14 19:20N 48°16' W 006°20'510.4
2018-Feb-14 18:50N 48°21' W 006°16'42 8.6
2018-Feb-14 13:53N 48°56' W 005°41'8 8.8
2018-Feb-14 12:58N 49°01' W 005°30'94 9.1
2018-Feb-14 02:41N 49°48' W 003°26'210.4
2018-Feb-14 02:28N 49°49' W 003°23'510.8
2018-Feb-14 02:00N 49°51' W 003°16'611.5
2018-Feb-14 01:29N 49°54' W 003°08'612.0
2018-Feb-14 01:00N 49°57' W 003°01'612.2
2018-Feb-14 00:30N 49°60' W 002°52'612.4
2018-Feb-14 00:00N 50°01' W 002°43'3010.8
2018-Feb-13 21:11N 50°09' W 001°57'2 8.1
2018-Feb-13 20:57N 50°10' W 001°54'3 7.8
2018-Feb-13 20:30N 50°11' W 001°49'4 7.2
2018-Feb-13 20:00N 50°12' W 001°44'3 6.6
2018-Feb-13 19:30N 50°12' W 001°39'3 6.1
2018-Feb-13 19:00N 50°13' W 001°34'3 6.0
2018-Feb-13 18:30N 50°14' W 001°29'44 9.1
2018-Feb-13 13:41N 50°26' W 000°23'210.5
2018-Feb-13 13:31N 50°26' W 000°20'510.0
2018-Feb-13 13:00N 50°28' W 000°13'5 9.4
2018-Feb-13 12:31N 50°29' W 000°06'5 9.9
2018-Feb-13 12:00N 50°30' E 000°02'5 9.3
2018-Feb-13 11:31N 50°31' E 000°09'4 8.6
2018-Feb-13 11:01N 50°33' E 000°16'4 7.8
2018-Feb-13 10:31N 50°34' E 000°21'4 8.7
2018-Feb-13 10:00N 50°35' E 000°28'5 9.3
2018-Feb-13 09:30N 50°37' E 000°35'5 9.2
2018-Feb-13 09:00N 50°40' E 000°41'5 9.4
2018-Feb-13 08:30N 50°43' E 000°46'5 9.4
2018-Feb-13 08:00N 50°46' E 000°52'5 9.8
2018-Feb-13 07:31N 50°49' E 000°58'610.3
2018-Feb-13 06:55N 50°53' E 001°05'511.4
2018-Feb-13 06:26N 50°57' E 001°11'512.1
2018-Feb-13 06:00N 50°60' E 001°18'612.6
2018-Feb-13 05:31N 51°03' E 001°26'713.0
2018-Feb-13 05:00N 51°07' E 001°35'713.1
2018-Feb-13 04:30N 51°11' E 001°43'612.3
2018-Feb-13 04:00N 51°16' E 001°49'612.0
2018-Feb-13 03:30N 51°21' E 001°54'611.0
2018-Feb-13 03:00N 51°25' E 002°01'713.4
2018-Feb-13 02:30N 51°22' E 002°10'612.1
2018-Feb-13 02:00N 51°21' E 002°20'611.9
2018-Feb-13 01:29N 51°23' E 002°29'611.9
2018-Feb-13 01:00N 51°22' E 002°39'611.3
2018-Feb-13 00:29N 51°22' E 002°48'611.4
2018-Feb-12 23:58N 51°22' E 002°57'510.7
2018-Feb-12 23:30N 51°22' E 003°05'510.1
2018-Feb-12 23:00N 51°23' E 003°13'510.1
2018-Feb-12 22:30N 51°24' E 003°21'510.0
2018-Feb-12 21:59N 51°25' E 003°29'4 8.6
2018-Feb-12 21:30N 51°25' E 003°36'5 9.2
2018-Feb-12 21:00N 51°23' E 003°43'510.8
2018-Feb-12 20:30N 51°21' E 003°50'510.3
2018-Feb-12 20:00N 51°24' E 003°57'3 6.8
2018-Feb-12 19:30N 51°25' E 004°02'5 9.6
2018-Feb-12 19:00N 51°23' E 004°09'4 8.5
2018-Feb-12 18:30N 51°21' E 004°15'4 9.1
2018-Feb-12 18:00N 51°17' E 004°19'1 1.7
2018-Feb-12 17:30N 51°17' E 004°20'0 0.0
2018-Feb-12 17:00N 51°17' E 004°20'1 2.6
2018-Feb-12 16:30N 51°16' E 004°21'1 1.6
2018-Feb-12 15:55N 51°15' E 004°22'0 0.0
2018-Feb-12 15:16N 51°15' E 004°22'0 0.0
2018-Feb-12 14:58N 51°15' E 004°22'0 0.0
2018-Feb-12 14:28N 51°15' E 004°22'0 0.0
2018-Feb-12 13:58N 51°15' E 004°22'0 0.0
2018-Feb-12 13:28N 51°15' E 004°22'0 0.0
2018-Feb-12 12:58N 51°15' E 004°22'0 0.0
2018-Feb-12 12:28N 51°15' E 004°22'0 0.0
2018-Feb-12 11:58N 51°15' E 004°22'0 0.0
2018-Feb-12 11:28N 51°15' E 004°22'0 0.0
2018-Feb-12 10:58N 51°15' E 004°22'0 0.0
2018-Feb-12 10:28N 51°15' E 004°22'0 0.0
2018-Feb-12 09:58N 51°15' E 004°22'0 0.0
2018-Feb-12 09:22N 51°15' E 004°22'0 0.0
2018-Feb-12 08:58N 51°15' E 004°22'0 0.0
2018-Feb-12 08:28N 51°15' E 004°22'0 0.0
2018-Feb-12 07:55N 51°15' E 004°22'0 0.0
2018-Feb-12 07:28N 51°15' E 004°22'0 0.0
2018-Feb-12 06:58N 51°15' E 004°22'0 0.0
2018-Feb-12 06:28N 51°15' E 004°22'0 0.0
2018-Feb-12 05:58N 51°15' E 004°22'0 0.0
2018-Feb-12 05:28N 51°15' E 004°22'0 0.0
2018-Feb-12 04:58N 51°15' E 004°22'0 0.0
2018-Feb-12 04:28N 51°15' E 004°22'0 0.0
2018-Feb-12 03:58N 51°15' E 004°22'0 0.0
2018-Feb-12 03:28N 51°15' E 004°22'0 0.0
2018-Feb-12 02:58N 51°15' E 004°22'0 0.0
2018-Feb-12 02:28N 51°15' E 004°22'0 0.0
2018-Feb-12 01:58N 51°15' E 004°22'0 0.0
2018-Feb-12 01:28N 51°15' E 004°22'0 0.0
2018-Feb-12 00:58N 51°15' E 004°22'0 0.0
2018-Feb-12 00:28N 51°15' E 004°22'0 0.0
2018-Feb-11 23:58N 51°15' E 004°22'0 0.0
2018-Feb-11 23:28N 51°15' E 004°22'0 0.0
2018-Feb-11 22:58N 51°15' E 004°22'0 0.0
2018-Feb-11 22:28N 51°15' E 004°22'0 0.0
2018-Feb-11 21:55N 51°15' E 004°22'0 0.0
2018-Feb-11 21:28N 51°15' E 004°22'0 0.0
2018-Feb-11 20:58N 51°15' E 004°22'0 0.0
2018-Feb-11 20:28N 51°15' E 004°22'0 0.0
2018-Feb-11 19:55N 51°15' E 004°22'0 0.0
2018-Feb-11 19:28N 51°15' E 004°22'0 0.0
2018-Feb-11 18:58N 51°15' E 004°22'0 0.0
2018-Feb-11 18:25N 51°15' E 004°22'0 0.0
2018-Feb-11 17:58N 51°15' E 004°22'0 0.0
2018-Feb-11 17:28N 51°15' E 004°22'0 0.0
2018-Feb-11 16:58N 51°15' E 004°22'0 0.0
2018-Feb-11 16:25N 51°15' E 004°22'0 0.0
2018-Feb-11 15:58N 51°15' E 004°22'0 0.0
2018-Feb-11 15:25N 51°15' E 004°22'0 0.0
2018-Feb-11 14:58N 51°15' E 004°22'0 0.0
2018-Feb-11 14:28N 51°15' E 004°22'0 0.0
2018-Feb-11 13:58N 51°15' E 004°22'0 0.0
2018-Feb-11 13:28N 51°15' E 004°22'0 0.0
2018-Feb-11 12:58N 51°15' E 004°22'0 0.0
2018-Feb-11 12:25N 51°15' E 004°22'0 0.0
2018-Feb-11 11:58N 51°15' E 004°22'0 0.0
2018-Feb-11 11:28N 51°15' E 004°22'0 0.0
2018-Feb-11 10:55N 51°15' E 004°22'0 0.0
2018-Feb-11 10:28N 51°15' E 004°22'0 0.0
2018-Feb-11 09:58N 51°15' E 004°22'0 0.0
2018-Feb-11 09:28N 51°15' E 004°22'0 0.0
2018-Feb-11 08:58N 51°15' E 004°22'0 0.0
2018-Feb-11 08:28N 51°15' E 004°22'0 0.0
2018-Feb-11 07:58N 51°15' E 004°22'  

Dump ship's entire track history